sensor_id;sensor_type;location;lat;lon;timestamp;temperature;humidity
18287;DHT22;9269;50.838;12.094;2023-04-03T00:02:23;7.00;44.30
18287;DHT22;9269;50.838;12.094;2023-04-03T00:04:52;7.00;44.10
18287;DHT22;9269;50.838;12.094;2023-04-03T00:07:20;7.00;44.20
18287;DHT22;9269;50.838;12.094;2023-04-03T00:09:48;6.90;44.20
18287;DHT22;9269;50.838;12.094;2023-04-03T00:12:17;7.00;44.40
18287;DHT22;9269;50.838;12.094;2023-04-03T00:14:45;6.90;44.70
18287;DHT22;9269;50.838;12.094;2023-04-03T00:17:13;6.80;44.30
18287;DHT22;9269;50.838;12.094;2023-04-03T00:19:43;6.80;44.80
18287;DHT22;9269;50.838;12.094;2023-04-03T00:22:11;6.90;44.50
18287;DHT22;9269;50.838;12.094;2023-04-03T00:24:40;6.80;44.50
18287;DHT22;9269;50.838;12.094;2023-04-03T00:27:09;6.90;44.40
18287;DHT22;9269;50.838;12.094;2023-04-03T00:29:38;6.90;44.20
18287;DHT22;9269;50.838;12.094;2023-04-03T00:32:06;6.80;44.20
18287;DHT22;9269;50.838;12.094;2023-04-03T00:34:34;6.90;44.50
18287;DHT22;9269;50.838;12.094;2023-04-03T00:37:05;6.70;44.20
18287;DHT22;9269;50.838;12.094;2023-04-03T00:39:33;6.80;44.40
18287;DHT22;9269;50.838;12.094;2023-04-03T00:42:01;6.80;44.50
18287;DHT22;9269;50.838;12.094;2023-04-03T00:47:37;6.80;44.10
18287;DHT22;9269;50.838;12.094;2023-04-03T00:50:07;6.80;43.60
18287;DHT22;9269;50.838;12.094;2023-04-03T00:52:37;6.60;43.80
18287;DHT22;9269;50.838;12.094;2023-04-03T00:55:08;6.60;43.30
18287;DHT22;9269;50.838;12.094;2023-04-03T00:57:38;6.70;43.40
18287;DHT22;9269;50.838;12.094;2023-04-03T01:00:09;6.50;43.20
18287;DHT22;9269;50.838;12.094;2023-04-03T01:02:38;6.50;43.40
18287;DHT22;9269;50.838;12.094;2023-04-03T01:05:08;6.40;43.50
18287;DHT22;9269;50.838;12.094;2023-04-03T01:07:39;6.60;43.40
18287;DHT22;9269;50.838;12.094;2023-04-03T01:10:10;6.40;43.10
18287;DHT22;9269;50.838;12.094;2023-04-03T01:12:42;6.50;43.10
18287;DHT22;9269;50.838;12.094;2023-04-03T01:15:15;6.50;43.10
18287;DHT22;9269;50.838;12.094;2023-04-03T01:17:45;6.40;43.00
18287;DHT22;9269;50.838;12.094;2023-04-03T01:26:21;6.10;43.00
18287;DHT22;9269;50.838;12.094;2023-04-03T01:28:49;6.30;42.70
18287;DHT22;9269;50.838;12.094;2023-04-03T01:31:22;6.30;43.10
18287;DHT22;9269;50.838;12.094;2023-04-03T01:33:54;6.40;42.90
18287;DHT22;9269;50.838;12.094;2023-04-03T01:36:24;6.30;42.80
18287;DHT22;9269;50.838;12.094;2023-04-03T01:38:53;6.20;42.70
18287;DHT22;9269;50.838;12.094;2023-04-03T01:41:23;6.20;42.80
18287;DHT22;9269;50.838;12.094;2023-04-03T01:43:52;6.10;42.40
18287;DHT22;9269;50.838;12.094;2023-04-03T01:46:21;6.20;42.80
18287;DHT22;9269;50.838;12.094;2023-04-03T01:48:51;6.10;42.90
18287;DHT22;9269;50.838;12.094;2023-04-03T01:51:20;6.20;42.20
18287;DHT22;9269;50.838;12.094;2023-04-03T01:53:49;5.90;42.40
18287;DHT22;9269;50.838;12.094;2023-04-03T01:56:18;6.00;42.30
18287;DHT22;9269;50.838;12.094;2023-04-03T01:58:47;6.00;42.50
18287;DHT22;9269;50.838;12.094;2023-04-03T02:01:15;6.00;42.70
18287;DHT22;9269;50.838;12.094;2023-04-03T02:03:44;5.80;42.40
18287;DHT22;9269;50.838;12.094;2023-04-03T02:06:12;6.10;43.00
18287;DHT22;9269;50.838;12.094;2023-04-03T02:08:42;6.10;42.40
18287;DHT22;9269;50.838;12.094;2023-04-03T02:11:11;6.10;42.80
18287;DHT22;9269;50.838;12.094;2023-04-03T02:13:39;6.10;42.30
18287;DHT22;9269;50.838;12.094;2023-04-03T02:16:08;6.00;42.70
18287;DHT22;9269;50.838;12.094;2023-04-03T02:18:37;5.80;42.40
18287;DHT22;9269;50.838;12.094;2023-04-03T02:21:06;6.00;42.40
18287;DHT22;9269;50.838;12.094;2023-04-03T02:23:34;6.00;42.70
18287;DHT22;9269;50.838;12.094;2023-04-03T02:26:07;6.10;42.60
18287;DHT22;9269;50.838;12.094;2023-04-03T02:28:36;6.00;42.50
18287;DHT22;9269;50.838;12.094;2023-04-03T02:31:08;5.90;42.90
18287;DHT22;9269;50.838;12.094;2023-04-03T02:33:37;5.90;43.00
18287;DHT22;9269;50.838;12.094;2023-04-03T02:36:07;6.00;42.70
18287;DHT22;9269;50.838;12.094;2023-04-03T02:38:36;5.90;43.00
18287;DHT22;9269;50.838;12.094;2023-04-03T02:41:10;5.90;43.00
18287;DHT22;9269;50.838;12.094;2023-04-03T02:43:38;5.80;43.10
18287;DHT22;9269;50.838;12.094;2023-04-03T02:46:07;6.00;43.10
18287;DHT22;9269;50.838;12.094;2023-04-03T02:48:36;5.70;42.90
18287;DHT22;9269;50.838;12.094;2023-04-03T02:51:05;5.80;43.00
18287;DHT22;9269;50.838;12.094;2023-04-03T02:53:33;5.70;43.10
18287;DHT22;9269;50.838;12.094;2023-04-03T02:56:02;5.70;43.20
18287;DHT22;9269;50.838;12.094;2023-04-03T02:58:31;5.60;43.60
18287;DHT22;9269;50.838;12.094;2023-04-03T03:01:00;5.60;43.40
18287;DHT22;9269;50.838;12.094;2023-04-03T03:03:29;5.60;43.00
18287;DHT22;9269;50.838;12.094;2023-04-03T03:06:02;5.50;43.10
18287;DHT22;9269;50.838;12.094;2023-04-03T03:08:34;5.60;43.20
18287;DHT22;9269;50.838;12.094;2023-04-03T03:11:04;5.70;43.40
18287;DHT22;9269;50.838;12.094;2023-04-03T03:13:33;5.60;43.20
18287;DHT22;9269;50.838;12.094;2023-04-03T03:16:02;5.50;43.20
18287;DHT22;9269;50.838;12.094;2023-04-03T03:18:30;5.70;43.10
18287;DHT22;9269;50.838;12.094;2023-04-03T03:21:00;5.60;43.10
18287;DHT22;9269;50.838;12.094;2023-04-03T03:23:30;5.50;43.10
18287;DHT22;9269;50.838;12.094;2023-04-03T03:26:02;5.30;43.10
18287;DHT22;9269;50.838;12.094;2023-04-03T03:28:30;5.40;43.10
18287;DHT22;9269;50.838;12.094;2023-04-03T03:31:00;5.60;43.00
18287;DHT22;9269;50.838;12.094;2023-04-03T03:33:29;5.30;43.10
18287;DHT22;9269;50.838;12.094;2023-04-03T03:35:58;5.30;43.30
18287;DHT22;9269;50.838;12.094;2023-04-03T03:38:27;5.30;43.40
18287;DHT22;9269;50.838;12.094;2023-04-03T03:40:55;5.30;43.20
18287;DHT22;9269;50.838;12.094;2023-04-03T03:43:23;5.20;43.20
18287;DHT22;9269;50.838;12.094;2023-04-03T03:45:52;5.30;43.50
18287;DHT22;9269;50.838;12.094;2023-04-03T03:48:23;5.20;43.40
18287;DHT22;9269;50.838;12.094;2023-04-03T03:50:51;5.30;43.50
18287;DHT22;9269;50.838;12.094;2023-04-03T03:53:20;5.00;43.40
18287;DHT22;9269;50.838;12.094;2023-04-03T03:55:48;5.10;43.40
18287;DHT22;9269;50.838;12.094;2023-04-03T03:58:17;5.20;43.60
18287;DHT22;9269;50.838;12.094;2023-04-03T04:00:46;5.30;43.20
18287;DHT22;9269;50.838;12.094;2023-04-03T04:03:15;5.10;43.60
18287;DHT22;9269;50.838;12.094;2023-04-03T04:05:45;5.20;43.50
18287;DHT22;9269;50.838;12.094;2023-04-03T04:08:14;5.00;43.60
18287;DHT22;9269;50.838;12.094;2023-04-03T04:10:42;5.20;43.50
18287;DHT22;9269;50.838;12.094;2023-04-03T04:13:11;5.20;43.70
18287;DHT22;9269;50.838;12.094;2023-04-03T04:15:39;5.20;43.40
18287;DHT22;9269;50.838;12.094;2023-04-03T04:18:07;5.10;43.60
18287;DHT22;9269;50.838;12.094;2023-04-03T04:20:35;5.10;43.90
18287;DHT22;9269;50.838;12.094;2023-04-03T04:23:05;5.10;43.70
18287;DHT22;9269;50.838;12.094;2023-04-03T04:25:34;5.10;43.80
18287;DHT22;9269;50.838;12.094;2023-04-03T04:28:02;4.80;43.70
18287;DHT22;9269;50.838;12.094;2023-04-03T04:30:31;5.00;43.90
18287;DHT22;9269;50.838;12.094;2023-04-03T04:32:59;4.80;43.70
18287;DHT22;9269;50.838;12.094;2023-04-03T04:35:28;4.80;44.10
18287;DHT22;9269;50.838;12.094;2023-04-03T04:37:56;4.90;43.70
18287;DHT22;9269;50.838;12.094;2023-04-03T04:40:26;4.90;44.30
18287;DHT22;9269;50.838;12.094;2023-04-03T04:42:55;4.90;43.80
18287;DHT22;9269;50.838;12.094;2023-04-03T04:45:23;5.00;43.80
18287;DHT22;9269;50.838;12.094;2023-04-03T04:47:53;4.70;43.80
18287;DHT22;9269;50.838;12.094;2023-04-03T04:50:23;5.00;43.80
18287;DHT22;9269;50.838;12.094;2023-04-03T04:52:51;5.00;43.90
18287;DHT22;9269;50.838;12.094;2023-04-03T04:55:19;4.90;44.10
18287;DHT22;9269;50.838;12.094;2023-04-03T04:57:49;4.80;43.80
18287;DHT22;9269;50.838;12.094;2023-04-03T05:00:18;4.90;43.90
18287;DHT22;9269;50.838;12.094;2023-04-03T05:02:47;4.60;43.80
18287;DHT22;9269;50.838;12.094;2023-04-03T05:05:15;4.80;43.90
18287;DHT22;9269;50.838;12.094;2023-04-03T05:07:43;4.50;44.20
18287;DHT22;9269;50.838;12.094;2023-04-03T05:10:11;4.80;44.20
18287;DHT22;9269;50.838;12.094;2023-04-03T05:12:40;4.60;44.00
18287;DHT22;9269;50.838;12.094;2023-04-03T05:15:10;4.60;44.00
18287;DHT22;9269;50.838;12.094;2023-04-03T05:17:38;4.80;44.00
18287;DHT22;9269;50.838;12.094;2023-04-03T05:20:07;4.60;44.20
18287;DHT22;9269;50.838;12.094;2023-04-03T05:22:36;4.60;43.90
18287;DHT22;9269;50.838;12.094;2023-04-03T05:25:07;4.60;44.00
18287;DHT22;9269;50.838;12.094;2023-04-03T05:27:38;4.70;44.00
18287;DHT22;9269;50.838;12.094;2023-04-03T05:30:09;4.80;44.00
18287;DHT22;9269;50.838;12.094;2023-04-03T05:32:38;4.70;44.00
18287;DHT22;9269;50.838;12.094;2023-04-03T05:35:08;4.80;44.20
18287;DHT22;9269;50.838;12.094;2023-04-03T05:37:37;4.70;43.90
18287;DHT22;9269;50.838;12.094;2023-04-03T05:40:06;4.50;43.90
18287;DHT22;9269;50.838;12.094;2023-04-03T05:42:35;4.70;44.00
18287;DHT22;9269;50.838;12.094;2023-04-03T05:45:04;4.70;44.10
18287;DHT22;9269;50.838;12.094;2023-04-03T05:47:34;4.90;43.90
18287;DHT22;9269;50.838;12.094;2023-04-03T05:50:02;4.80;44.00
18287;DHT22;9269;50.838;12.094;2023-04-03T05:52:33;4.80;43.90
18287;DHT22;9269;50.838;12.094;2023-04-03T05:55:04;4.90;43.80
18287;DHT22;9269;50.838;12.094;2023-04-03T05:57:33;5.00;43.70
18287;DHT22;9269;50.838;12.094;2023-04-03T06:00:03;4.90;44.00
18287;DHT22;9269;50.838;12.094;2023-04-03T06:02:34;5.00;43.70
18287;DHT22;9269;50.838;12.094;2023-04-03T06:05:03;5.00;43.80
18287;DHT22;9269;50.838;12.094;2023-04-03T06:07:35;5.00;43.90
18287;DHT22;9269;50.838;12.094;2023-04-03T06:10:05;5.10;43.40
18287;DHT22;9269;50.838;12.094;2023-04-03T06:12:33;5.20;43.50
18287;DHT22;9269;50.838;12.094;2023-04-03T06:15:03;5.20;43.10
18287;DHT22;9269;50.838;12.094;2023-04-03T06:17:33;5.10;43.30
18287;DHT22;9269;50.838;12.094;2023-04-03T06:20:08;5.10;42.90
18287;DHT22;9269;50.838;12.094;2023-04-03T06:22:37;5.30;42.90
18287;DHT22;9269;50.838;12.094;2023-04-03T06:25:08;5.20;42.90
18287;DHT22;9269;50.838;12.094;2023-04-03T06:27:37;5.30;43.00
18287;DHT22;9269;50.838;12.094;2023-04-03T06:30:07;5.10;43.30
18287;DHT22;9269;50.838;12.094;2023-04-03T06:32:36;5.30;42.90
18287;DHT22;9269;50.838;12.094;2023-04-03T06:35:06;5.20;43.00
18287;DHT22;9269;50.838;12.094;2023-04-03T06:37:35;5.20;42.40
18287;DHT22;9269;50.838;12.094;2023-04-03T06:40:09;5.30;42.30
18287;DHT22;9269;50.838;12.094;2023-04-03T06:42:38;5.40;42.40
18287;DHT22;9269;50.838;12.094;2023-04-03T06:45:08;5.30;42.60
18287;DHT22;9269;50.838;12.094;2023-04-03T06:47:39;5.30;42.40
18287;DHT22;9269;50.838;12.094;2023-04-03T06:50:10;5.10;42.40
18287;DHT22;9269;50.838;12.094;2023-04-03T06:52:41;5.30;42.70
18287;DHT22;9269;50.838;12.094;2023-04-03T06:55:11;5.40;42.50
18287;DHT22;9269;50.838;12.094;2023-04-03T06:57:39;5.50;42.20
18287;DHT22;9269;50.838;12.094;2023-04-03T07:00:08;5.50;41.70
18287;DHT22;9269;50.838;12.094;2023-04-03T07:02:39;5.60;41.80
18287;DHT22;9269;50.838;12.094;2023-04-03T07:05:08;5.60;41.90
18287;DHT22;9269;50.838;12.094;2023-04-03T07:07:38;5.30;41.80
18287;DHT22;9269;50.838;12.094;2023-04-03T07:10:07;5.50;42.10
18287;DHT22;9269;50.838;12.094;2023-04-03T07:12:38;5.50;41.20
18287;DHT22;9269;50.838;12.094;2023-04-03T07:15:08;5.60;41.10
18287;DHT22;9269;50.838;12.094;2023-04-03T07:17:36;5.60;41.50
18287;DHT22;9269;50.838;12.094;2023-04-03T07:20:09;5.40;40.70
18287;DHT22;9269;50.838;12.094;2023-04-03T07:22:40;5.60;40.80
18287;DHT22;9269;50.838;12.094;2023-04-03T07:25:08;5.50;41.00
18287;DHT22;9269;50.838;12.094;2023-04-03T07:27:37;5.60;40.70
18287;DHT22;9269;50.838;12.094;2023-04-03T07:30:07;5.60;40.80
18287;DHT22;9269;50.838;12.094;2023-04-03T07:32:36;5.70;41.00
18287;DHT22;9269;50.838;12.094;2023-04-03T07:35:05;5.60;41.10
18287;DHT22;9269;50.838;12.094;2023-04-03T07:37:34;5.70;40.70
18287;DHT22;9269;50.838;12.094;2023-04-03T07:40:04;5.80;40.10
18287;DHT22;9269;50.838;12.094;2023-04-03T07:42:33;5.70;40.60
18287;DHT22;9269;50.838;12.094;2023-04-03T07:45:04;5.90;40.60
18287;DHT22;9269;50.838;12.094;2023-04-03T07:47:32;6.00;40.60
18287;DHT22;9269;50.838;12.094;2023-04-03T07:50:01;6.00;40.70
18287;DHT22;9269;50.838;12.094;2023-04-03T07:52:31;6.10;40.40
18287;DHT22;9269;50.838;12.094;2023-04-03T07:55:01;6.10;39.80
18287;DHT22;9269;50.838;12.094;2023-04-03T07:57:29;6.20;40.20
18287;DHT22;9269;50.838;12.094;2023-04-03T07:59:58;6.30;40.50
18287;DHT22;9269;50.838;12.094;2023-04-03T08:02:46;6.30;40.10
18287;DHT22;9269;50.838;12.094;2023-04-03T08:05:18;6.20;40.00
18287;DHT22;9269;50.838;12.094;2023-04-03T08:07:48;6.20;40.00
18287;DHT22;9269;50.838;12.094;2023-04-03T08:10:18;6.30;40.00
18287;DHT22;9269;50.838;12.094;2023-04-03T08:12:48;6.20;39.50
18287;DHT22;9269;50.838;12.094;2023-04-03T08:15:17;6.30;39.80
18287;DHT22;9269;50.838;12.094;2023-04-03T08:17:46;6.20;40.20
18287;DHT22;9269;50.838;12.094;2023-04-03T08:20:16;6.50;39.40
18287;DHT22;9269;50.838;12.094;2023-04-03T08:22:45;6.50;38.80
18287;DHT22;9269;50.838;12.094;2023-04-03T08:25:19;7.00;39.20
18287;DHT22;9269;50.838;12.094;2023-04-03T08:27:47;7.20;38.50
18287;DHT22;9269;50.838;12.094;2023-04-03T08:30:15;7.40;37.30
18287;DHT22;9269;50.838;12.094;2023-04-03T08:32:44;7.50;37.60
18287;DHT22;9269;50.838;12.094;2023-04-03T08:35:12;7.30;37.40
18287;DHT22;9269;50.838;12.094;2023-04-03T08:37:41;7.10;37.20
18287;DHT22;9269;50.838;12.094;2023-04-03T08:40:13;7.00;37.20
18287;DHT22;9269;50.838;12.094;2023-04-03T08:42:52;6.90;37.40
18287;DHT22;9269;50.838;12.094;2023-04-03T08:45:27;6.80;37.50
18287;DHT22;9269;50.838;12.094;2023-04-03T08:48:05;6.70;37.30
18287;DHT22;9269;50.838;12.094;2023-04-03T08:50:38;6.90;37.40
18287;DHT22;9269;50.838;12.094;2023-04-03T08:53:13;7.00;37.10
18287;DHT22;9269;50.838;12.094;2023-04-03T08:55:44;6.80;36.90
18287;DHT22;9269;50.838;12.094;2023-04-03T08:58:18;6.90;36.60
18287;DHT22;9269;50.838;12.094;2023-04-03T09:00:49;6.70;36.70
18287;DHT22;9269;50.838;12.094;2023-04-03T09:03:20;6.90;36.50
18287;DHT22;9269;50.838;12.094;2023-04-03T09:05:53;6.90;36.10
18287;DHT22;9269;50.838;12.094;2023-04-03T09:08:28;6.90;35.90
18287;DHT22;9269;50.838;12.094;2023-04-03T09:11:09;6.80;35.80
18287;DHT22;9269;50.838;12.094;2023-04-03T09:13:47;7.00;35.20
18287;DHT22;9269;50.838;12.094;2023-04-03T09:16:28;7.00;34.90
18287;DHT22;9269;50.838;12.094;2023-04-03T09:19:07;6.90;34.60
18287;DHT22;9269;50.838;12.094;2023-04-03T09:21:41;7.10;34.60
18287;DHT22;9269;50.838;12.094;2023-04-03T09:24:12;6.90;33.90
18287;DHT22;9269;50.838;12.094;2023-04-03T09:26:45;6.90;33.90
18287;DHT22;9269;50.838;12.094;2023-04-03T09:29:18;7.00;33.60
18287;DHT22;9269;50.838;12.094;2023-04-03T09:31:48;7.00;33.60
18287;DHT22;9269;50.838;12.094;2023-04-03T09:34:22;7.10;33.00
18287;DHT22;9269;50.838;12.094;2023-04-03T09:36:54;6.90;32.50
18287;DHT22;9269;50.838;12.094;2023-04-03T09:39:24;6.90;32.00
18287;DHT22;9269;50.838;12.094;2023-04-03T09:42:01;6.80;31.70
18287;DHT22;9269;50.838;12.094;2023-04-03T09:44:33;6.80;31.90
18287;DHT22;9269;50.838;12.094;2023-04-03T09:47:18;6.90;32.30
18287;DHT22;9269;50.838;12.094;2023-04-03T09:49:46;7.40;31.50
18287;DHT22;9269;50.838;12.094;2023-04-03T09:52:20;7.70;30.80
18287;DHT22;9269;50.838;12.094;2023-04-03T09:54:50;7.90;31.00
18287;DHT22;9269;50.838;12.094;2023-04-03T09:57:19;8.00;30.10
18287;DHT22;9269;50.838;12.094;2023-04-03T09:59:57;8.30;29.70
18287;DHT22;9269;50.838;12.094;2023-04-03T10:02:35;8.50;30.20
18287;DHT22;9269;50.838;12.094;2023-04-03T10:05:04;8.70;29.70
18287;DHT22;9269;50.838;12.094;2023-04-03T10:07:37;8.70;29.20
18287;DHT22;9269;50.838;12.094;2023-04-03T10:10:20;8.80;29.00
18287;DHT22;9269;50.838;12.094;2023-04-03T10:13:04;8.70;29.30
18287;DHT22;9269;50.838;12.094;2023-04-03T10:15:37;8.50;28.40
18287;DHT22;9269;50.838;12.094;2023-04-03T10:18:20;8.40;28.40
18287;DHT22;9269;50.838;12.094;2023-04-03T10:20:57;8.30;29.00
18287;DHT22;9269;50.838;12.094;2023-04-03T10:23:33;8.10;28.80
18287;DHT22;9269;50.838;12.094;2023-04-03T10:26:12;8.20;28.90
18287;DHT22;9269;50.838;12.094;2023-04-03T10:28:50;8.00;29.10
18287;DHT22;9269;50.838;12.094;2023-04-03T10:31:26;8.00;29.20
18287;DHT22;9269;50.838;12.094;2023-04-03T10:34:05;8.20;28.80
18287;DHT22;9269;50.838;12.094;2023-04-03T10:36:43;8.40;28.50
18287;DHT22;9269;50.838;12.094;2023-04-03T10:39:19;8.70;29.00
18287;DHT22;9269;50.838;12.094;2023-04-03T10:42:01;8.90;29.00
18287;DHT22;9269;50.838;12.094;2023-04-03T10:44:59;9.10;28.90
18287;DHT22;9269;50.838;12.094;2023-04-03T10:47:36;9.50;29.20
18287;DHT22;9269;50.838;12.094;2023-04-03T10:50:23;9.70;28.60
18287;DHT22;9269;50.838;12.094;2023-04-03T10:52:57;9.70;28.40
18287;DHT22;9269;50.838;12.094;2023-04-03T10:55:35;9.50;28.60
18287;DHT22;9269;50.838;12.094;2023-04-03T10:58:06;9.30;27.60
18287;DHT22;9269;50.838;12.094;2023-04-03T11:00:40;9.10;27.70
18287;DHT22;9269;50.838;12.094;2023-04-03T11:03:15;9.30;27.20
18287;DHT22;9269;50.838;12.094;2023-04-03T11:05:47;9.40;27.30
18287;DHT22;9269;50.838;12.094;2023-04-03T11:08:25;9.70;27.60
18287;DHT22;9269;50.838;12.094;2023-04-03T11:10:57;9.80;26.90
18287;DHT22;9269;50.838;12.094;2023-04-03T11:13:33;10.00;27.20
18287;DHT22;9269;50.838;12.094;2023-04-03T11:16:02;10.10;26.20
18287;DHT22;9269;50.838;12.094;2023-04-03T11:18:37;10.20;26.70
18287;DHT22;9269;50.838;12.094;2023-04-03T11:21:12;10.20;27.20
18287;DHT22;9269;50.838;12.094;2023-04-03T11:23:44;10.10;26.60
18287;DHT22;9269;50.838;12.094;2023-04-03T11:26:18;10.20;27.20
18287;DHT22;9269;50.838;12.094;2023-04-03T11:28:52;10.20;26.40
18287;DHT22;9269;50.838;12.094;2023-04-03T11:31:38;10.30;26.50
18287;DHT22;9269;50.838;12.094;2023-04-03T11:34:22;10.40;25.10
18287;DHT22;9269;50.838;12.094;2023-04-03T11:36:54;10.50;25.90
18287;DHT22;9269;50.838;12.094;2023-04-03T11:39:25;10.70;24.00
18287;DHT22;9269;50.838;12.094;2023-04-03T11:41:55;10.80;25.40
18287;DHT22;9269;50.838;12.094;2023-04-03T11:44:39;10.90;24.50
18287;DHT22;9269;50.838;12.094;2023-04-03T11:47:09;11.00;24.70
18287;DHT22;9269;50.838;12.094;2023-04-03T11:50:07;11.10;24.90
18287;DHT22;9269;50.838;12.094;2023-04-03T11:52:57;10.90;25.50
18287;DHT22;9269;50.838;12.094;2023-04-03T11:55:44;10.60;26.00
18287;DHT22;9269;50.838;12.094;2023-04-03T11:58:15;10.40;26.00
18287;DHT22;9269;50.838;12.094;2023-04-03T12:01:05;10.40;26.50
18287;DHT22;9269;50.838;12.094;2023-04-03T12:03:56;10.60;26.60
18287;DHT22;9269;50.838;12.094;2023-04-03T12:06:58;10.90;25.80
18287;DHT22;9269;50.838;12.094;2023-04-03T12:09:31;10.90;24.30
18287;DHT22;9269;50.838;12.094;2023-04-03T12:12:23;10.70;25.00
18287;DHT22;9269;50.838;12.094;2023-04-03T12:14:52;10.50;24.40
18287;DHT22;9269;50.838;12.094;2023-04-03T12:17:26;10.20;24.60
18287;DHT22;9269;50.838;12.094;2023-04-03T12:19:57;10.20;23.40
18287;DHT22;9269;50.838;12.094;2023-04-03T12:22:27;10.30;23.70
18287;DHT22;9269;50.838;12.094;2023-04-03T12:24:57;10.50;23.80
18287;DHT22;9269;50.838;12.094;2023-04-03T12:27:33;10.70;23.20
18287;DHT22;9269;50.838;12.094;2023-04-03T12:30:15;10.60;23.00
18287;DHT22;9269;50.838;12.094;2023-04-03T12:32:55;10.60;23.20
18287;DHT22;9269;50.838;12.094;2023-04-03T12:35:44;10.50;23.60
18287;DHT22;9269;50.838;12.094;2023-04-03T12:38:37;10.60;22.90
18287;DHT22;9269;50.838;12.094;2023-04-03T12:41:19;10.80;22.60
18287;DHT22;9269;50.838;12.094;2023-04-03T12:44:00;11.00;23.00
18287;DHT22;9269;50.838;12.094;2023-04-03T12:46:39;11.00;23.40
18287;DHT22;9269;50.838;12.094;2023-04-03T12:49:22;10.80;23.40
18287;DHT22;9269;50.838;12.094;2023-04-03T12:51:52;10.70;22.70
18287;DHT22;9269;50.838;12.094;2023-04-03T12:54:31;10.60;22.90
18287;DHT22;9269;50.838;12.094;2023-04-03T12:57:11;10.80;23.70
18287;DHT22;9269;50.838;12.094;2023-04-03T12:59:39;10.80;23.50
18287;DHT22;9269;50.838;12.094;2023-04-03T13:02:20;10.70;24.30
18287;DHT22;9269;50.838;12.094;2023-04-03T13:04:51;10.60;24.00
18287;DHT22;9269;50.838;12.094;2023-04-03T13:07:22;10.40;23.50
18287;DHT22;9269;50.838;12.094;2023-04-03T13:09:59;10.30;23.20
18287;DHT22;9269;50.838;12.094;2023-04-03T13:12:29;10.30;23.70
18287;DHT22;9269;50.838;12.094;2023-04-03T13:15:01;10.50;23.70
18287;DHT22;9269;50.838;12.094;2023-04-03T13:17:31;10.70;23.10
18287;DHT22;9269;50.838;12.094;2023-04-03T13:20:13;10.70;22.60
18287;DHT22;9269;50.838;12.094;2023-04-03T13:22:50;10.60;23.30
18287;DHT22;9269;50.838;12.094;2023-04-03T13:25:23;10.40;23.30
18287;DHT22;9269;50.838;12.094;2023-04-03T13:27:51;10.30;23.00
18287;DHT22;9269;50.838;12.094;2023-04-03T13:30:37;10.10;23.50
18287;DHT22;9269;50.838;12.094;2023-04-03T13:33:20;10.10;23.90
18287;DHT22;9269;50.838;12.094;2023-04-03T13:35:55;10.00;22.60
18287;DHT22;9269;50.838;12.094;2023-04-03T13:38:26;9.90;23.10
18287;DHT22;9269;50.838;12.094;2023-04-03T13:40:59;10.00;23.30
18287;DHT22;9269;50.838;12.094;2023-04-03T13:43:31;10.10;23.50
18287;DHT22;9269;50.838;12.094;2023-04-03T13:46:03;10.30;23.50
18287;DHT22;9269;50.838;12.094;2023-04-03T13:48:38;10.40;23.40
18287;DHT22;9269;50.838;12.094;2023-04-03T13:51:17;10.40;23.90
18287;DHT22;9269;50.838;12.094;2023-04-03T13:53:49;10.30;23.00
18287;DHT22;9269;50.838;12.094;2023-04-03T13:56:26;10.20;24.00
18287;DHT22;9269;50.838;12.094;2023-04-03T13:59:06;10.10;24.60
18287;DHT22;9269;50.838;12.094;2023-04-03T14:01:52;10.20;24.80
18287;DHT22;9269;50.838;12.094;2023-04-03T14:04:24;10.10;23.70
18287;DHT22;9269;50.838;12.094;2023-04-03T14:06:55;10.00;23.80
18287;DHT22;9269;50.838;12.094;2023-04-03T14:09:26;9.90;24.30
18287;DHT22;9269;50.838;12.094;2023-04-03T14:11:58;9.70;24.10
18287;DHT22;9269;50.838;12.094;2023-04-03T14:14:31;9.70;24.30
18287;DHT22;9269;50.838;12.094;2023-04-03T14:17:02;9.50;24.40
18287;DHT22;9269;50.838;12.094;2023-04-03T14:19:33;9.50;24.40
18287;DHT22;9269;50.838;12.094;2023-04-03T14:22:12;9.40;24.40
18287;DHT22;9269;50.838;12.094;2023-04-03T14:24:42;9.40;23.90
18287;DHT22;9269;50.838;12.094;2023-04-03T14:27:16;9.30;24.40
18287;DHT22;9269;50.838;12.094;2023-04-03T14:29:46;9.20;25.10
18287;DHT22;9269;50.838;12.094;2023-04-03T14:32:15;9.20;24.20
18287;DHT22;9269;50.838;12.094;2023-04-03T14:34:45;9.10;24.60
18287;DHT22;9269;50.838;12.094;2023-04-03T14:37:17;9.10;24.70
18287;DHT22;9269;50.838;12.094;2023-04-03T14:39:47;9.10;24.70
18287;DHT22;9269;50.838;12.094;2023-04-03T14:42:19;9.10;24.80
18287;DHT22;9269;50.838;12.094;2023-04-03T14:44:48;9.10;25.00
18287;DHT22;9269;50.838;12.094;2023-04-03T14:47:20;9.30;24.90
18287;DHT22;9269;50.838;12.094;2023-04-03T14:49:57;9.20;24.10
18287;DHT22;9269;50.838;12.094;2023-04-03T14:52:29;9.10;24.80
18287;DHT22;9269;50.838;12.094;2023-04-03T14:54:59;9.20;24.90
18287;DHT22;9269;50.838;12.094;2023-04-03T14:57:30;9.10;25.10
18287;DHT22;9269;50.838;12.094;2023-04-03T14:59:59;9.10;25.10
18287;DHT22;9269;50.838;12.094;2023-04-03T15:02:31;9.00;25.10
18287;DHT22;9269;50.838;12.094;2023-04-03T15:05:02;8.90;25.00
18287;DHT22;9269;50.838;12.094;2023-04-03T15:07:34;8.90;25.20
18287;DHT22;9269;50.838;12.094;2023-04-03T15:10:15;8.90;25.00
18287;DHT22;9269;50.838;12.094;2023-04-03T15:12:46;9.00;25.50
18287;DHT22;9269;50.838;12.094;2023-04-03T15:15:16;8.80;24.60
18287;DHT22;9269;50.838;12.094;2023-04-03T15:17:49;8.80;24.30
18287;DHT22;9269;50.838;12.094;2023-04-03T15:20:22;8.80;24.70
18287;DHT22;9269;50.838;12.094;2023-04-03T15:22:51;8.80;24.90
18287;DHT22;9269;50.838;12.094;2023-04-03T15:25:20;8.80;25.00
18287;DHT22;9269;50.838;12.094;2023-04-03T15:27:51;8.60;25.60
18287;DHT22;9269;50.838;12.094;2023-04-03T15:30:19;8.70;25.50
18287;DHT22;9269;50.838;12.094;2023-04-03T15:32:49;8.70;25.80
18287;DHT22;9269;50.838;12.094;2023-04-03T15:35:18;8.60;25.90
18287;DHT22;9269;50.838;12.094;2023-04-03T15:37:47;8.50;25.80
18287;DHT22;9269;50.838;12.094;2023-04-03T15:40:16;8.60;26.30
18287;DHT22;9269;50.838;12.094;2023-04-03T15:42:45;8.50;26.20
18287;DHT22;9269;50.838;12.094;2023-04-03T15:45:15;8.60;26.30
18287;DHT22;9269;50.838;12.094;2023-04-03T15:47:45;8.40;26.50
18287;DHT22;9269;50.838;12.094;2023-04-03T15:50:13;8.40;26.10
18287;DHT22;9269;50.838;12.094;2023-04-03T15:52:42;8.30;25.70
18287;DHT22;9269;50.838;12.094;2023-04-03T15:55:10;8.40;25.80
18287;DHT22;9269;50.838;12.094;2023-04-03T15:57:39;8.50;26.50
18287;DHT22;9269;50.838;12.094;2023-04-03T16:00:09;8.40;25.70
18287;DHT22;9269;50.838;12.094;2023-04-03T16:02:39;8.40;26.80
18287;DHT22;9269;50.838;12.094;2023-04-03T16:05:09;8.30;26.60
18287;DHT22;9269;50.838;12.094;2023-04-03T16:07:39;8.20;26.50
18287;DHT22;9269;50.838;12.094;2023-04-03T16:10:12;8.20;26.40
18287;DHT22;9269;50.838;12.094;2023-04-03T16:12:40;7.90;26.40
18287;DHT22;9269;50.838;12.094;2023-04-03T16:15:11;8.10;26.90
18287;DHT22;9269;50.838;12.094;2023-04-03T16:17:41;8.00;27.20
18287;DHT22;9269;50.838;12.094;2023-04-03T16:20:11;8.10;27.40
18287;DHT22;9269;50.838;12.094;2023-04-03T16:22:40;7.90;27.30